Time;durP1;ratioP1;P1;durP2;ratioP2;P2;SDS_P1;SDS_P2;PMS_P1;PMS_P2;Temp;Humidity;BMP_temperature;BMP_pressure;BME280_temperature;BME280_humidity;BME280_pressure;Samples;Min_cycle;Max_cycle;Signal;HPM_P1;HPM_P2
2023/06/01 00:00:06;;;;;;;5.90;2.13;;;;;;;15.94;72.38;100024.72;12214408;19;20413;-81
2023/06/01 00:04:09;;;;;;;8.68;2.50;;;;;;;15.90;73.06;100031.91;12212502;19;20464;-81
2023/06/01 00:08:11;;;;;;;3.97;2.30;;;;;;;15.86;73.25;100022.50;12193076;19;20014;-81
2023/06/01 00:12:12;;;;;;;4.07;2.03;;;;;;;15.84;73.83;100018.31;12214412;19;20006;-81
2023/06/01 00:16:15;;;;;;;5.70;2.65;;;;;;;15.79;73.45;100021.91;12207576;19;20077;-80
2023/06/01 00:20:17;;;;;;;5.28;2.47;;;;;;;15.76;72.71;100013.31;12195126;19;20111;-81
2023/06/01 00:24:20;;;;;;;5.80;2.30;;;;;;;15.69;72.81;100017.22;12213006;19;20531;-81
2023/06/01 00:28:22;;;;;;;3.70;2.03;;;;;;;15.68;73.66;100014.72;12212757;19;20569;-81
2023/06/01 00:32:24;;;;;;;9.95;2.40;;;;;;;15.67;73.31;100013.00;12188942;19;20010;-81
2023/06/01 00:36:27;;;;;;;5.03;2.13;;;;;;;15.64;73.33;100016.34;12215785;19;20010;-82
2023/06/01 00:40:29;;;;;;;4.82;2.42;;;;;;;15.62;73.22;100018.59;12210829;19;20014;-81
2023/06/01 00:44:31;;;;;;;3.80;2.05;;;;;;;15.56;73.91;100005.81;12189583;19;20019;-81
2023/06/01 00:48:32;;;;;;;6.88;1.98;;;;;;;15.56;72.99;100005.81;12213282;19;20032;-81
2023/06/01 00:52:36;;;;;;;5.05;2.33;;;;;;;15.62;71.84;100005.53;12210752;19;20011;-81
2023/06/01 00:56:39;;;;;;;5.80;2.10;;;;;;;15.63;72.77;100000.81;12190320;19;20032;-81
2023/06/01 01:00:41;;;;;;;5.45;2.25;;;;;;;15.62;71.85;100005.53;12208209;19;20471;-81
2023/06/01 01:04:43;;;;;;;4.73;1.90;;;;;;;15.64;72.17;99997.72;12212047;19;20015;-81
2023/06/01 01:09:01;;;;;;;8.60;2.25;;;;;;;15.64;71.83;100005.25;12189659;19;20050;-80
2023/06/01 01:13:10;;;;;;;5.50;2.10;;;;;;;15.65;71.47;100007.75;12209592;19;20076;-81
2023/06/01 01:17:24;;;;;;;5.07;2.20;;;;;;;15.64;72.70;100010.78;12189155;19;20079;-81
2023/06/01 01:21:32;;;;;;;6.80;2.40;;;;;;;15.62;71.82;100002.75;12209416;19;20014;-81
2023/06/01 01:25:37;;;;;;;4.20;2.15;;;;;;;15.59;72.46;100002.50;12209507;19;20013;-81
2023/06/01 01:29:42;;;;;;;5.28;2.15;;;;;;;15.56;72.31;100003.88;12187446;19;20006;-82
2023/06/01 01:33:47;;;;;;;4.75;2.35;;;;;;;15.55;72.31;100002.19;12208346;19;20010;-81
2023/06/01 01:37:54;;;;;;;5.75;2.47;;;;;;;15.54;72.05;100000.53;12185502;19;20007;-81
2023/06/01 01:41:58;;;;;;;5.10;2.28;;;;;;;15.50;71.96;99997.47;12206703;19;20035;-80
2023/06/01 01:46:10;;;;;;;5.60;2.20;;;;;;;15.49;71.68;99994.97;12206481;19;20002;-80
2023/06/01 01:50:15;;;;;;;5.97;2.42;;;;;;;15.49;71.93;99981.09;12184249;19;20006;-81
2023/06/01 01:54:19;;;;;;;4.20;2.10;;;;;;;15.48;71.55;99988.59;12200267;19;20085;-81
2023/06/01 01:58:23;;;;;;;3.38;2.03;;;;;;;15.46;71.61;99985.25;12206378;19;20011;-80
2023/06/01 02:02:25;;;;;;;;;;;;;;;15.45;71.82;99977.22;12185196;19;20007;-80
2023/06/01 02:06:27;;;;;;;6.15;2.35;;;;;;;15.45;71.20;99982.75;12206598;19;20279;-80
2023/06/01 02:10:29;;;;;;;4.57;2.33;;;;;;;15.46;71.61;99976.91;12208205;19;20018;-80
2023/06/01 02:14:31;;;;;;;6.77;3.07;;;;;;;15.43;71.33;99974.69;12183498;19;20017;-81
2023/06/01 02:18:33;;;;;;;4.18;1.98;;;;;;;15.41;71.61;99976.94;12208532;19;20598;-80
2023/06/01 02:22:35;;;;;;;6.65;2.33;;;;;;;15.41;72.27;99971.38;12220342;19;20006;-80
2023/06/01 02:26:36;;;;;;;6.07;2.53;;;;;;;15.48;71.87;99971.09;12195484;19;20077;-80
2023/06/01 02:30:38;;;;;;;4.07;2.10;;;;;;;15.43;72.05;99969.13;12218416;19;20011;-78
2023/06/01 02:34:41;;;;;;;6.03;2.25;;;;;;;15.41;72.53;99965.00;12215594;19;20002;-81
2023/06/01 02:38:42;;;;;;;14.43;2.75;;;;;;;15.40;72.54;99969.69;12195938;19;20105;-81
2023/06/01 02:42:44;;;;;;;3.70;2.40;;;;;;;15.38;72.92;99966.38;12213589;19;20010;-79
2023/06/01 02:46:46;;;;;;;5.35;1.92;;;;;;;15.34;73.33;99970.81;12212193;19;20042;-80
2023/06/01 02:50:48;;;;;;;6.60;2.25;;;;;;;15.32;73.60;99967.50;12225968;19;20006;-81
2023/06/01 02:54:50;;;;;;;5.97;2.05;;;;;;;15.25;74.11;99961.38;12225545;19;20499;-81
2023/06/01 02:59:14;;;;;;;6.28;2.40;;;;;;;15.26;74.35;99965.84;12198196;19;20010;-80
2023/06/01 03:03:22;;;;;;;6.93;2.42;;;;;;;15.27;73.72;99956.38;12215883;19;20014;-80
2023/06/01 03:07:24;;;;;;;4.60;2.20;;;;;;;15.24;73.63;99960.53;12219955;19;20391;-80
2023/06/01 03:11:28;;;;;;;5.75;2.10;;;;;;;15.23;73.75;99963.63;12195999;19;20125;-80
2023/06/01 03:15:30;;;;;;;6.28;2.35;;;;;;;15.21;73.87;99960.28;12216760;19;20404;-81
2023/06/01 03:19:31;;;;;;;6.30;2.22;;;;;;;15.22;73.86;99959.16;12218729;19;20007;-80
2023/06/01 03:23:37;;;;;;;7.00;2.83;;;;;;;15.26;73.36;99963.88;12195630;19;20135;-81
2023/06/01 03:27:40;;;;;;;5.68;2.35;;;;;;;15.27;73.19;99965.53;12216770;19;20066;-80
2023/06/01 03:31:42;;;;;;;6.78;2.20;;;;;;;15.31;72.67;99963.03;12213271;19;20002;-81
2023/06/01 03:35:44;;;;;;;4.30;2.00;;;;;;;15.32;72.98;99961.09;12192579;19;20078;-82
2023/06/01 03:39:47;;;;;;;4.83;2.70;;;;;;;15.31;73.17;99965.81;12215759;19;20002;-81
2023/06/01 03:43:49;;;;;;;4.22;2.25;;;;;;;15.31;72.87;99968.59;12192203;19;20038;-80
2023/06/01 03:47:52;;;;;;;5.85;2.33;;;;;;;15.28;73.50;99966.38;12216065;19;20006;-81
2023/06/01 03:51:54;;;;;;;5.57;2.23;;;;;;;15.27;73.46;99967.50;12216041;19;20370;-81
2023/06/01 03:55:57;;;;;;;5.63;2.88;;;;;;;15.23;74.10;99974.72;12197711;19;20010;-80
2023/06/01 04:00:17;;;;;;;5.63;3.00;;;;;;;15.23;74.07;99974.72;12217383;19;20011;-81
2023/06/01 04:04:28;;;;;;;7.38;2.78;;;;;;;15.17;74.87;99975.78;12213726;19;20018;-81
2023/06/01 04:08:30;;;;;;;6.60;2.38;;;;;;;15.11;75.42;99979.69;12192395;19;20710;-80
2023/06/01 04:12:32;;;;;;;5.67;2.30;;;;;;;15.03;76.34;99976.34;12212537;19;20583;-81
2023/06/01 04:16:34;;;;;;;7.37;2.73;;;;;;;14.99;76.33;99980.78;12213515;19;20268;-81
2023/06/01 04:20:37;;;;;;;;;;;;;;;14.95;77.50;99992.69;12192829;19;20015;-80
2023/06/01 04:24:39;;;;;;;4.07;2.10;;;;;;;14.91;77.87;99994.38;12213838;19;19922;-80
2023/06/01 04:28:45;;;;;;;5.50;2.58;;;;;;;14.87;77.66;99991.28;12212553;19;20030;-81
2023/06/01 04:32:47;;;;;;;6.30;2.30;;;;;;;14.85;78.44;99996.28;12188635;19;20492;-80
2023/06/01 04:36:55;;;;;;;7.28;2.38;;;;;;;14.84;78.67;99996.56;12211708;19;19998;-80
2023/06/01 04:40:57;;;;;;;5.53;2.67;;;;;;;14.80;79.73;100004.59;12185780;19;20394;-80
2023/06/01 04:45:02;;;;;;;7.20;2.57;;;;;;;14.77;80.34;100010.69;12211733;19;20019;-81
2023/06/01 04:49:06;;;;;;;4.53;2.08;;;;;;;14.77;80.26;100008.75;12212275;19;20011;-80
2023/06/01 04:53:10;;;;;;;6.03;2.47;;;;;;;14.77;80.59;100010.69;12184828;19;20014;-81
2023/06/01 04:57:13;;;;;;;6.10;2.58;;;;;;;14.77;80.88;100013.47;12202778;19;20386;-81
2023/06/01 05:01:15;;;;;;;5.35;2.60;;;;;;;14.79;80.91;100008.50;12188517;19;20424;-81
2023/06/01 05:05:19;;;;;;;6.38;2.67;;;;;;;14.83;81.67;100020.69;12192390;19;20342;-81
2023/06/01 05:09:22;;;;;;;5.18;2.47;;;;;;;14.85;81.16;100010.16;12214610;19;20006;-81
2023/06/01 05:13:25;;;;;;;7.43;2.55;;;;;;;14.89;81.66;100014.06;12212221;19;20017;-81
2023/06/01 05:17:27;;;;;;;7.20;2.67;;;;;;;14.92;81.37;100005.19;12197226;19;20006;-80
2023/06/01 05:21:32;;;;;;;4.55;2.63;;;;;;;14.95;81.36;100007.41;12216937;19;20011;-81
2023/06/01 05:25:36;;;;;;;8.50;2.78;;;;;;;15.01;82.33;100011.03;12217115;19;20460;-81
2023/06/01 05:29:38;;;;;;;;;;;;;;;15.10;81.71;100003.00;12194961;19;19998;-81
2023/06/01 05:33:42;;;;;;;8.65;2.63;;;;;;;15.21;81.28;100007.47;12216264;19;19940;-81
2023/06/01 05:37:44;;;;;;;7.25;2.72;;;;;;;15.28;81.49;100006.06;12215606;19;20029;-81
2023/06/01 05:41:48;;;;;;;7.38;3.00;;;;;;;15.36;80.80;100006.66;12192950;19;20022;-81
2023/06/01 05:45:51;;;;;;;5.10;2.88;;;;;;;15.43;82.96;100012.75;12215000;19;20059;-81
2023/06/01 05:49:53;;;;;;;8.35;2.60;;;;;;;15.46;84.15;100013.00;12205708;19;20015;-81
2023/06/01 05:53:56;;;;;;;;;;;;;;;15.49;nan;100022.75;12216443;19;20036;-81
2023/06/01 05:57:58;;;;;;;8.80;3.20;;;;;;;15.56;85.07;100022.50;12219228;19;21125;-81
2023/06/01 06:02:02;;;;;;;6.43;3.17;;;;;;;15.64;84.11;100025.50;12197061;19;20495;-81
2023/06/01 06:06:04;;;;;;;8.10;2.70;;;;;;;15.79;83.96;100029.44;12215529;19;20009;-80
2023/06/01 06:10:09;;;;;;;7.43;3.30;;;;;;;15.94;82.42;100023.84;12214237;19;20030;-80
2023/06/01 06:14:11;;;;;;;4.82;2.90;;;;;;;16.14;82.06;100023.00;12194296;19;20017;-81
2023/06/01 06:18:13;;;;;;;7.65;3.50;;;;;;;16.25;81.71;100023.81;12218031;19;20034;-82
2023/06/01 06:22:16;;;;;;;;;;;;;;;16.37;80.72;100019.59;12220905;19;20015;-82
2023/06/01 06:26:18;;;;;;;13.07;3.78;;;;;;;16.53;79.16;100014.78;12194672;19;19926;-81
2023/06/01 06:30:21;;;;;;;9.27;3.40;;;;;;;16.71;78.85;100007.75;12216586;19;20010;-81
2023/06/01 06:34:25;;;;;;;7.18;3.42;;;;;;;16.91;78.91;100009.63;12213672;19;20480;-80
2023/06/01 06:38:33;;;;;;;7.88;3.63;;;;;;;17.15;78.04;100014.50;12205463;19;20026;-81
2023/06/01 06:42:37;;;;;;;5.75;2.90;;;;;;;17.36;77.50;100015.19;12210079;19;20030;-82
2023/06/01 06:46:40;;;;;;;7.40;3.40;;;;;;;17.61;76.97;100019.72;12211536;19;20019;-82
2023/06/01 06:50:44;;;;;;;7.03;3.08;;;;;;;17.84;75.93;100016.19;12183719;19;20014;-82
2023/06/01 06:54:50;;;;;;;11.95;3.00;;;;;;;18.10;75.25;100025.16;12207692;19;20026;-82
2023/06/01 06:58:52;;;;;;;11.38;3.50;;;;;;;18.31;73.32;100027.72;12189606;19;20014;-84
2023/06/01 07:03:08;;;;;;;5.30;2.85;;;;;;;18.51;72.22;100023.88;12208062;19;20073;-83
2023/06/01 07:07:11;;;;;;;6.88;3.65;;;;;;;18.79;71.43;100024.94;12213971;19;20024;-83
2023/06/01 07:11:16;;;;;;;7.93;2.67;;;;;;;19.04;69.71;100026.56;12197947;19;20007;-82
2023/06/01 07:15:18;;;;;;;;;;;;;;;19.23;69.49;100029.34;12221403;19;20014;-83
2023/06/01 07:19:22;;;;;;;6.38;2.47;;;;;;;19.43;68.35;100031.84;12222154;19;19944;-83
2023/06/01 07:23:27;;;;;;;9.13;2.75;;;;;;;19.73;66.75;100022.16;12198400;19;20085;-83
2023/06/01 07:27:35;;;;;;;4.82;2.67;;;;;;;19.97;66.10;100024.81;12220831;19;20083;-83
2023/06/01 07:31:38;;;;;;;7.45;2.92;;;;;;;20.26;65.12;100020.91;12217297;19;20007;-82
2023/06/01 07:35:41;;;;;;;8.10;3.03;;;;;;;20.52;64.01;100021.25;12195811;19;20021;-82
2023/06/01 07:39:45;;;;;;;5.40;2.35;;;;;;;20.65;63.97;100020.44;12217578;19;20011;-81
2023/06/01 07:43:47;;;;;;;6.85;2.72;;;;;;;20.90;63.34;100013.44;12213343;19;20472;-83
2023/06/01 07:47:50;;;;;;;8.20;3.10;;;;;;;21.11;60.70;100016.63;12219855;19;20018;-83
2023/06/01 07:51:53;;;;;;;7.18;2.65;;;;;;;21.22;60.11;100003.22;12220524;19;20014;-83
2023/06/01 07:55:55;;;;;;;6.70;2.53;;;;;;;21.38;59.34;100007.31;12191480;19;20011;-82
2023/06/01 08:00:00;;;;;;;6.45;2.63;;;;;;;21.54;56.20;100013.41;12219780;19;20077;-83
2023/06/01 08:04:10;;;;;;;4.07;2.60;;;;;;;21.56;57.64;100008.28;12216449;19;20019;-83
2023/06/01 08:08:18;;;;;;;7.50;2.55;;;;;;;21.77;55.93;100004.97;12195921;19;20042;-83
2023/06/01 08:12:25;;;;;;;9.80;3.00;;;;;;;22.00;56.31;100000.16;12215925;19;20477;-83
2023/06/01 08:16:30;;;;;;;7.57;2.88;;;;;;;22.14;52.25;100002.88;12225851;19;20014;-82
2023/06/01 08:20:33;;;;;;;9.18;2.83;;;;;;;22.26;51.88;100009.56;12197224;19;20007;-83
2023/06/01 08:24:40;;;;;;;5.88;2.72;;;;;;;22.53;52.36;100010.50;12219236;19;20467;-82
2023/06/01 08:28:51;;;;;;;14.18;7.32;;;;;;;22.86;50.93;100001.66;12232389;19;20015;-82
2023/06/01 08:32:55;;;;;;;6.78;2.80;;;;;;;22.98;48.23;99999.91;12219722;19;20017;-81
2023/06/01 08:36:58;;;;;;;6.25;2.30;;;;;;;23.08;48.52;99998.78;12232692;19;20026;-83
2023/06/01 08:41:17;;;;;;;6.72;3.08;;;;;;;23.26;47.89;99998.75;12211065;19;20018;-83
2023/06/01 08:45:20;;;;;;;6.60;2.45;;;;;;;23.48;46.22;99990.16;12236234;19;20010;-84
2023/06/01 08:49:30;;;;;;;4.88;2.25;;;;;;;23.66;45.51;99990.97;12224254;19;20011;-84
2023/06/01 08:53:34;;;;;;;5.43;2.70;;;;;;;23.65;44.13;99984.53;12201039;19;20011;-83
2023/06/01 08:57:40;;;;;;;7.18;2.35;;;;;;;23.85;44.23;99985.00;12223291;19;20023;-84
2023/06/01 09:01:43;;;;;;;5.13;2.10;;;;;;;24.03;43.86;99980.16;12224941;19;20021;-83
2023/06/01 09:05:50;;;;;;;9.32;2.40;;;;;;;24.29;42.42;99974.44;12200642;19;20086;-83
2023/06/01 09:09:54;;;;;;;4.78;2.28;;;;;;;24.46;43.31;99976.38;12224781;19;20010;-84
2023/06/01 09:13:58;;;;;;;6.13;2.42;;;;;;;24.73;42.65;99960.97;12200436;19;20439;-84
2023/06/01 09:18:13;;;;;;;6.45;2.40;;;;;;;25.06;42.01;99963.06;12224795;19;20384;-84
2023/06/01 09:22:16;;;;;;;6.13;2.05;;;;;;;25.16;39.83;99962.69;12226796;19;20002;-83
2023/06/01 09:26:25;;;;;;;6.22;2.38;;;;;;;25.24;39.91;99961.78;12203138;19;20018;-83
2023/06/01 09:30:40;;;;;;;5.25;2.30;;;;;;;25.62;38.54;99966.44;12245259;19;20487;-84
2023/06/01 09:34:45;;;;;;;6.10;2.15;;;;;;;25.71;38.69;99961.50;12229699;19;20007;-85
2023/06/01 09:38:49;;;;;;;5.93;2.63;;;;;;;25.78;37.95;99953.28;12205331;19;20454;-83
2023/06/01 09:42:54;;;;;;;5.50;2.28;;;;;;;25.92;37.46;99950.19;12219101;19;20480;-83
2023/06/01 09:47:01;;;;;;;7.45;2.60;;;;;;;26.08;38.34;99953.16;12201457;19;20547;-82
2023/06/01 09:51:22;;;;;;;4.78;2.53;;;;;;;26.25;36.40;99950.13;12229198;19;20020;-84
2023/06/01 09:55:27;;;;;;;6.30;2.15;;;;;;;26.23;37.20;99946.00;12226915;19;20006;-84
2023/06/01 09:59:45;;;;;;;5.47;2.28;;;;;;;26.43;36.93;99949.88;12208570;19;20013;-84
2023/06/01 10:03:53;;;;;;;5.63;2.80;;;;;;;26.73;36.35;99945.66;12228451;19;20019;-83
2023/06/01 10:07:55;;;;;;;4.68;2.20;;;;;;;27.02;35.21;99938.88;12209716;19;20333;-82
2023/06/01 10:11:58;;;;;;;4.63;2.30;;;;;;;27.07;34.34;99940.66;12228190;19;20014;-84
2023/06/01 10:16:01;;;;;;;6.22;2.15;;;;;;;27.02;34.35;99927.56;12225199;19;20013;-82
2023/06/01 10:20:11;;;;;;;11.77;2.20;;;;;;;27.02;34.47;99927.56;12205350;19;20088;-83
2023/06/01 10:24:15;;;;;;;5.57;2.17;;;;;;;27.26;34.66;99923.88;12223092;19;20014;-84
2023/06/01 10:28:25;;;;;;;8.23;2.30;;;;;;;27.61;34.09;99925.25;12225137;19;20600;-83
2023/06/01 10:32:38;;;;;;;7.85;2.20;;;;;;;27.74;33.59;99907.00;12205512;19;20399;-84
2023/06/01 10:36:52;;;;;;;6.28;2.20;;;;;;;27.67;32.78;99916.13;12226222;19;20021;-82
2023/06/01 10:41:28;;;;;;;7.63;2.28;;;;;;;27.92;33.46;99907.50;12204657;19;20367;-83
2023/06/01 10:45:40;;;;;;;9.23;2.28;;;;;;;28.15;32.17;99919.03;12241899;19;20010;-83
2023/06/01 10:49:48;;;;;;;5.40;2.22;;;;;;;28.18;30.96;99904.13;12237991;19;20467;-83
2023/06/01 10:53:52;;;;;;;5.43;2.30;;;;;;;28.22;31.58;99895.72;12235672;19;20043;-82
2023/06/01 10:58:25;;;;;;;5.60;2.38;;;;;;;27.99;30.80;99895.53;12267432;19;20049;-80
2023/06/01 11:02:35;;;;;;;4.60;1.90;;;;;;;28.11;31.98;99889.78;12225847;19;20839;-84
2023/06/01 11:06:40;;;;;;;8.98;2.45;;;;;;;28.49;30.77;99893.97;12248968;19;20014;-83
2023/06/01 11:11:00;;;;;;;4.72;2.15;;;;;;;28.40;31.27;99885.63;12246464;19;20017;-82
2023/06/01 11:15:12;;;;;;;4.65;2.22;;;;;;;28.35;31.56;99888.78;12217655;19;20019;-80
2023/06/01 11:19:21;;;;;;;6.53;2.53;;;;;;;28.43;30.80;99886.94;12240150;19;20002;-82
2023/06/01 11:23:22;;;;;;;4.35;1.98;;;;;;;28.47;31.79;99882.19;12216641;19;20006;-82
2023/06/01 11:27:25;;;;;;;5.85;2.40;;;;;;;28.68;30.87;99873.38;12225185;19;20019;-83
2023/06/01 11:31:40;;;;;;;4.20;2.53;;;;;;;28.94;31.08;99882.03;12234266;19;20010;-83
2023/06/01 11:36:05;;;;;;;4.80;2.65;;;;;;;29.25;31.07;99868.94;12188624;19;20011;-83
2023/06/01 11:40:17;;;;;;;5.47;2.42;;;;;;;29.59;30.95;99860.66;12262840;19;20010;-81
2023/06/01 11:44:21;;;;;;;7.47;2.33;;;;;;;29.56;30.51;99865.06;12217372;19;20006;-82
2023/06/01 11:48:24;;;;;;;5.45;2.35;;;;;;;29.74;29.45;99859.75;12242698;19;20025;-81
2023/06/01 11:52:28;;;;;;;5.93;2.25;;;;;;;29.82;29.12;99857.88;12240325;19;20010;-82
2023/06/01 11:56:35;;;;;;;10.93;3.15;;;;;;;29.84;28.72;99847.75;12217508;19;20025;-82
2023/06/01 12:00:46;;;;;;;6.38;2.38;;;;;;;29.67;28.74;99846.25;12235376;19;20010;-81
2023/06/01 12:05:06;;;;;;;6.68;2.83;;;;;;;29.56;27.69;99847.22;12216527;19;20742;-80
2023/06/01 12:09:09;;;;;;;6.88;2.50;;;;;;;29.38;28.47;99844.84;12235190;19;20016;-80
2023/06/01 12:13:12;;;;;;;6.55;2.63;;;;;;;29.78;28.48;99840.75;12230616;19;20527;-80
2023/06/01 12:17:15;;;;;;;8.95;2.80;;;;;;;30.54;26.94;99837.09;12212128;19;20014;-81
2023/06/01 12:21:17;;;;;;;5.18;2.45;;;;;;;31.42;26.55;99833.00;12239168;19;20430;-82
2023/06/01 12:25:22;;;;;;;3.47;2.00;;;;;;;32.38;25.85;99830.16;12237554;19;20023;-82
2023/06/01 12:29:39;;;;;;;5.82;2.50;;;;;;;33.65;24.41;99822.59;12214824;19;20006;-83
2023/06/01 12:33:45;;;;;;;4.47;2.45;;;;;;;34.61;23.72;99821.72;12234951;19;20678;-84
2023/06/01 12:38:17;;;;;;;7.68;3.10;;;;;;;35.13;21.72;99813.38;12215434;19;20025;-83
2023/06/01 12:42:36;;;;;;;5.95;2.47;;;;;;;35.91;21.63;99804.69;12224958;19;20627;-83
2023/06/01 12:46:39;;;;;;;7.63;2.90;;;;;;;36.72;20.80;99797.34;12229359;19;20029;-84
2023/06/01 12:50:44;;;;;;;4.97;2.50;;;;;;;36.97;19.67;99796.19;12206268;19;20007;-81
2023/06/01 12:54:50;;;;;;;4.13;2.42;;;;;;;36.99;19.78;99790.03;12225693;19;20002;-83
2023/06/01 12:58:52;;;;;;;5.20;2.35;;;;;;;37.69;18.80;99786.56;12210733;19;20010;-82
2023/06/01 13:02:56;;;;;;;3.40;2.20;;;;;;;37.87;17.75;99781.34;12228579;19;20046;-84
2023/06/01 13:06:59;;;;;;;5.35;2.38;;;;;;;38.15;17.38;99764.84;12230178;19;20014;-82
2023/06/01 13:11:01;;;;;;;9.63;2.55;;;;;;;38.24;16.59;99767.97;12207289;19;20353;-83
2023/06/01 13:15:04;;;;;;;13.23;4.05;;;;;;;38.40;16.94;99770.94;12221712;19;20042;-83
2023/06/01 13:19:06;;;;;;;6.43;2.60;;;;;;;38.81;16.04;99761.06;12228165;19;20006;-80
2023/06/01 13:23:12;;;;;;;4.63;2.25;;;;;;;38.95;14.88;99755.03;12200438;19;20011;-83
2023/06/01 13:27:14;;;;;;;3.72;2.13;;;;;;;38.64;15.19;99763.09;12223529;19;20030;-83
2023/06/01 13:31:19;;;;;;;4.93;2.20;;;;;;;38.72;15.42;99755.09;12223881;19;20009;-82
2023/06/01 13:35:24;;;;;;;5.63;2.40;;;;;;;38.82;15.90;99756.13;12197982;19;20003;-83
2023/06/01 13:39:26;;;;;;;4.07;2.25;;;;;;;39.49;15.69;99747.22;12220837;19;20006;-83
2023/06/01 13:43:31;;;;;;;4.88;2.08;;;;;;;39.69;15.22;99745.06;12218662;19;20794;-83
2023/06/01 13:47:33;;;;;;;5.85;2.30;;;;;;;40.07;13.41;99748.22;12197979;19;20023;-83
2023/06/01 13:51:38;;;;;;;6.25;2.00;;;;;;;40.20;14.87;99744.63;12225206;19;20042;-84
2023/06/01 13:55:41;;;;;;;3.78;1.80;;;;;;;41.11;14.07;99727.94;12223112;19;20057;-83
2023/06/01 13:59:44;;;;;;;5.85;2.30;;;;;;;41.54;13.90;99714.97;12198226;19;20358;-83
2023/06/01 14:03:48;;;;;;;5.70;2.55;;;;;;;41.89;14.12;99712.16;12220094;19;20026;-83
2023/06/01 14:07:50;;;;;;;4.05;2.33;;;;;;;42.03;13.04;99711.63;12204213;19;20018;-85
2023/06/01 14:11:55;;;;;;;8.27;2.45;;;;;;;42.08;12.76;99713.13;12226435;19;20082;-83
2023/06/01 14:15:57;;;;;;;7.38;2.33;;;;;;;42.06;13.04;99709.88;12222348;19;20011;-81
2023/06/01 14:20:00;;;;;;;9.20;2.40;;;;;;;42.96;13.08;99705.25;12218370;19;20006;-83
2023/06/01 14:24:04;;;;;;;6.38;2.75;;;;;;;43.90;12.19;99700.09;12237017;19;20112;-82
2023/06/01 14:28:07;;;;;;;3.08;2.20;;;;;;;43.97;11.90;99701.09;12231189;19;20047;-84
2023/06/01 14:32:10;;;;;;;4.18;2.40;;;;;;;43.44;11.90;99702.88;12211957;19;20014;-84
2023/06/01 14:36:14;;;;;;;4.45;2.25;;;;;;;43.63;12.47;99685.56;12241070;19;20068;-84
2023/06/01 14:40:18;;;;;;;3.45;2.20;;;;;;;44.70;11.98;99685.72;12234696;19;20010;-85
2023/06/01 14:44:24;;;;;;;8.75;2.10;;;;;;;44.07;11.61;99683.19;12219515;19;20027;-83
2023/06/01 14:48:26;;;;;;;5.78;2.13;;;;;;;43.07;12.09;99677.91;12233121;19;20007;-84
2023/06/01 14:52:28;;;;;;;3.47;2.40;;;;;;;43.58;11.63;99672.50;12255003;19;20284;-82
2023/06/01 14:56:32;;;;;;;5.60;2.50;;;;;;;42.83;12.52;99663.97;12245047;19;20011;-84
2023/06/01 15:00:36;;;;;;;4.80;2.47;;;;;;;41.35;13.47;99658.16;12248494;19;20010;-83
2023/06/01 15:04:44;;;;;;;5.22;2.97;;;;;;;41.84;13.17;99651.94;12250040;19;20023;-83
2023/06/01 15:08:48;;;;;;;3.78;2.47;;;;;;;42.02;13.04;99651.31;12223295;19;20415;-84
2023/06/01 15:12:51;;;;;;;7.30;2.72;;;;;;;42.86;12.45;99645.63;12240453;19;20014;-85
2023/06/01 15:16:54;;;;;;;4.82;1.90;;;;;;;43.00;12.87;99644.22;12215200;19;20600;-82
2023/06/01 15:21:01;;;;;;;4.57;2.38;;;;;;;40.42;13.63;99635.91;12239560;19;20010;-84
2023/06/01 15:25:04;;;;;;;7.43;2.33;;;;;;;37.67;15.68;99630.97;12242472;19;20663;-83
2023/06/01 15:29:06;;;;;;;6.68;3.03;;;;;;;35.37;17.54;99622.53;12215034;19;20010;-83
2023/06/01 15:33:07;;;;;;;5.45;2.67;;;;;;;33.93;18.91;99624.53;12234357;19;20023;-84
2023/06/01 15:37:12;;;;;;;5.53;2.70;;;;;;;32.77;19.94;99613.56;12240220;19;20010;-83
2023/06/01 15:41:14;;;;;;;4.68;2.33;;;;;;;32.56;20.11;99617.19;12214826;19;20114;-84
2023/06/01 15:45:16;;;;;;;5.38;2.63;;;;;;;31.69;20.77;99612.28;12236596;19;20016;-83
2023/06/01 15:49:20;;;;;;;3.28;2.17;;;;;;;30.87;22.42;99618.13;12236395;19;20333;-82
2023/06/01 15:53:24;;;;;;;4.78;2.42;;;;;;;30.37;23.06;99606.22;12213869;19;20003;-83
2023/06/01 15:57:28;;;;;;;3.80;2.15;;;;;;;29.86;24.05;99608.78;12233091;19;20015;-82
2023/06/01 16:01:32;;;;;;;5.10;2.80;;;;;;;29.58;24.61;99610.00;12237273;19;20463;-82
2023/06/01 16:05:38;;;;;;;6.20;2.40;;;;;;;29.20;24.65;99599.66;12213801;19;20006;-82
2023/06/01 16:09:41;;;;;;;7.18;2.00;;;;;;;28.94;25.06;99595.56;12248727;19;20014;-84
2023/06/01 16:13:48;;;;;;;4.10;2.53;;;;;;;28.89;25.93;99597.91;12226802;19;20105;-84
2023/06/01 16:17:49;;;;;;;10.32;2.28;;;;;;;28.84;26.93;99591.34;12228810;19;20773;-82
2023/06/01 16:21:52;;;;;;;3.55;2.17;;;;;;;28.70;26.88;99587.44;12228829;19;20002;-83
2023/06/01 16:25:54;;;;;;;5.72;2.22;;;;;;;28.77;26.48;99588.41;12209184;19;20587;-85
2023/06/01 16:29:56;;;;;;;3.88;2.30;;;;;;;28.69;26.82;99574.47;12231980;19;20028;-85
2023/06/01 16:33:59;;;;;;;;;;;;;;;28.47;27.21;99576.09;12231600;19;20018;-84
2023/06/01 16:38:01;;;;;;;3.78;1.63;;;;;;;28.39;27.94;99572.28;12210025;19;21684;-83
2023/06/01 16:52:48;;;;;;;7.40;2.58;;;;;;;28.37;29.09;99581.13;12226539;19;20031;-83
2023/06/01 16:56:53;;;;;;;5.38;2.80;;;;;;;28.16;29.85;99572.22;12203990;19;20018;-82
2023/06/01 17:00:55;;;;;;;6.82;3.85;;;;;;;27.88;31.06;99578.94;12222194;19;20555;-83
2023/06/01 17:04:58;;;;;;;8.63;4.15;;;;;;;27.64;31.80;99571.53;12204867;19;20003;-82
2023/06/01 17:09:02;;;;;;;12.75;5.13;;;;;;;27.18;32.21;99576.91;12222752;19;20002;-83
2023/06/01 17:13:04;;;;;;;7.88;5.25;;;;;;;26.89;31.52;99577.38;12223110;19;20824;-83
2023/06/01 17:17:07;;;;;;;10.15;5.38;;;;;;;26.73;31.52;99580.22;12199026;19;20014;-82
2023/06/01 17:21:09;;;;;;;11.57;6.03;;;;;;;26.62;31.12;99577.09;12221273;19;20015;-82
2023/06/01 17:25:11;;;;;;;9.30;5.68;;;;;;;26.87;31.32;99572.09;12224683;19;20007;-81
2023/06/01 17:29:13;;;;;;;12.95;5.90;;;;;;;26.78;31.28;99577.94;12202839;19;20015;-79
2023/06/01 17:33:15;;;;;;;13.68;5.38;;;;;;;26.82;31.45;99569.53;12220110;19;20075;-80
2023/06/01 17:37:19;;;;;;;18.13;4.97;;;;;;;26.87;32.07;99577.75;12222536;19;20006;-85
2023/06/01 17:41:21;;;;;;;15.35;5.00;;;;;;;26.76;32.26;99583.13;12200179;19;20030;-81
2023/06/01 17:45:23;;;;;;;7.90;5.07;;;;;;;26.46;32.21;99582.69;12223330;19;20852;-83
2023/06/01 17:49:26;;;;;;;9.32;4.32;;;;;;;26.11;32.76;99588.19;12221774;19;20006;-82
2023/06/01 17:53:28;;;;;;;9.50;4.85;;;;;;;25.92;32.79;99597.31;12199891;19;20470;-82
2023/06/01 17:57:35;;;;;;;11.10;4.55;;;;;;;25.62;33.20;99589.13;12220914;19;20343;-84
2023/06/01 18:01:37;;;;;;;7.47;4.25;;;;;;;25.41;33.51;99596.94;12221388;19;20003;-82
2023/06/01 18:05:39;;;;;;;8.93;4.97;;;;;;;25.21;34.13;99602.34;12198204;19;20044;-83
2023/06/01 18:09:48;;;;;;;17.90;6.50;;;;;;;25.02;34.38;99608.56;12221178;19;20015;-83
2023/06/01 18:13:53;;;;;;;10.07;4.90;;;;;;;24.77;35.42;99601.25;12196969;19;20396;-81
2023/06/01 18:17:56;;;;;;;7.72;4.68;;;;;;;24.45;35.46;99615.03;12223339;19;20024;-83
2023/06/01 18:22:00;;;;;;;7.38;4.55;;;;;;;24.15;35.92;99616.28;12218518;19;20029;-84
2023/06/01 18:26:04;;;;;;;7.55;4.82;;;;;;;23.88;36.69;99615.69;12198606;19;20017;-84
2023/06/01 18:30:08;;;;;;;9.35;4.63;;;;;;;23.56;37.34;99608.81;12178312;19;20110;-83
2023/06/01 18:34:10;;;;;;;8.93;4.75;;;;;;;23.26;37.98;99611.66;12219369;19;20471;-82
2023/06/01 18:38:12;;;;;;;8.70;5.60;;;;;;;23.07;38.24;99614.88;12194240;19;20014;-82
2023/06/01 18:42:16;;;;;;;8.07;4.68;;;;;;;22.88;38.40;99617.28;12210331;19;20014;-82
2023/06/01 18:46:18;;;;;;;9.70;4.47;;;;;;;22.66;39.35;99621.94;12212850;19;20014;-82
2023/06/01 18:50:23;;;;;;;10.68;4.35;;;;;;;22.43;39.80;99629.78;12191866;19;20006;-82
2023/06/01 18:54:28;;;;;;;8.55;4.35;;;;;;;22.22;40.71;99646.50;12212517;19;20074;-82
2023/06/01 18:58:30;;;;;;;;;;;;;;;22.01;41.21;99640.72;12249936;19;20010;-83
2023/06/01 19:02:34;;;;;;;7.60;4.20;;;;;;;21.83;41.14;99651.09;12208218;19;19915;-83
2023/06/01 19:06:36;;;;;;;12.20;4.18;;;;;;;21.65;41.56;99649.41;12235129;19;20010;-83